Thursday, November 21, 2019, 10:10 PM EST
Back to Local

KSNC, Chester, Chester Airport

Location: Chester, CT, United States Lat: 41.384
Local Time: 10:10 PM EST ( 3:10 GMT) Lon: -72.506
Time Zone: US/Eastern Elev: 416 ft

Show me the last for .
Show Coded

Time T Td Feel RH Dir Speed Gust Alt SLP Vis Weather Sky Remarks
2019-11-21 21:35 46 32 44 56 Variable 6 - 30.04 - 10 CLR None
2019-11-21 21:15 45 30 42 56 220° 5 - 30.04 - 10 CLR None
2019-11-21 20:55 43 30 41 60 200° 3 - 30.04 - 10 CLR None
2019-11-21 20:35 45 30 - 56 - Calm - 30.05 - 10 CLR None
2019-11-21 20:15 43 30 - 60 - Calm - 30.05 - 10 CLR None
2019-11-21 19:55 43 30 - 60 - Calm - 30.06 - 10 CLR None
2019-11-21 19:35 43 30 41 60 260° 3 - 30.07 - 10 CLR None
2019-11-21 19:15 43 30 - 60 - Calm - 30.07 - 10 CLR None
2019-11-21 18:55 45 30 - 56 - Calm - 30.07 - 10 CLR None
2019-11-21 18:35 45 32 - 61 - Calm - 30.07 - 10 CLR None
2019-11-21 18:15 45 32 - 61 - Calm - 30.08 - 10 CLR None
2019-11-21 17:55 43 32 - 65 - Calm - 30.08 - 10 CLR None
2019-11-21 17:35 43 32 - 65 - Calm - 30.08 - 10 CLR None
2019-11-21 17:15 45 32 - 61 - Calm - 30.08 - 10 CLR None
2019-11-21 16:55 45 32 43 61 210° 3 - 30.08 - 10 CLR None
2019-11-21 16:35 45 30 42 56 200° 5 - 30.08 - 10 CLR None
2019-11-21 16:15 46 28 44 49 190° 6 - 30.08 - 10 CLR None
2019-11-21 15:55 48 27 - 42 - Calm - 30.08 - 10 CLR None
2019-11-21 15:35 50 27 - 39 - Calm - 30.09 - 10 CLR None
2019-11-21 15:15 52 27 - 37 Variable 5 - 30.09 - 10 CLR None
2019-11-21 14:55 50 27 48 39 330° 6 - 30.08 - 10 CLR None
2019-11-21 14:35 50 27 48 39 Variable 5 - 30.08 - 10 CLR None
2019-11-21 14:15 52 27 - 37 330° 8 - 30.08 - 10 CLR None
2019-11-21 13:55 50 27 47 39 310° 8 - 30.08 - 10 CLR None
2019-11-21 13:15 48 27 43 42 340° 12 - 30.09 - 10 CLR None
2019-11-21 12:55 48 27 45 42 310° 8 - 30.09 - 10 CLR None
2019-11-21 12:35 48 27 45 42 330° 7 - 30.11 - 10 CLR None
2019-11-21 12:15 46 27 42 45 310° 9 - 30.11 - 10 CLR None
2019-11-21 11:55 46 27 41 45 10° 12 - 30.11 - 10 CLR None
2019-11-21 11:35 45 27 38 48 Variable 6 14 30.12 - 10 CLR None
2019-11-21 11:15 45 27 37 48 350° 9 17 30.13 - 10 CLR None
2019-11-21 10:55 45 27 37 48 10° 12 17 30.14 - 10 CLR None
2019-11-21 10:35 45 28 40 52 360° 9 - 30.15 - 10 CLR None
2019-11-21 10:15 43 28 35 56 350° 8 15 30.16 - 10 CLR None
2019-11-21 09:55 41 28 34 60 340° 12 - 30.16 - 10 CLR None
2019-11-21 09:35 41 28 33 60 320° 8 16 30.16 - 10 CLR None
2019-11-21 09:15 41 28 33 60 320° 7 16 30.16 - 10 CLR None
2019-11-21 08:55 39 28 32 64 340° 13 - 30.16 - 10 CLR None
2019-11-21 08:35 39 28 30 64 330° 16 - 30.15 - 10 CLR None
2019-11-21 08:15 37 28 28 69 340° 9 16 30.15 - 10 CLR None
2019-11-21 07:55 37 28 29 69 330° 8 15 30.15 - 10 CLR None
2019-11-21 07:35 36 28 28 74 330° 10 - 30.14 - 10 CLR None
2019-11-21 07:15 36 28 28 74 330° 10 - 30.13 - 10 CLR None
2019-11-21 06:55 36 28 28 74 330° 12 - 30.13 - 10 CLR None
2019-11-21 06:35 36 28 27 74 350° 13 - 30.12 - 10 CLR None
2019-11-21 06:15 36 28 27 74 340° 14 - 30.12 - 10 CLR None
2019-11-21 05:55 36 28 28 74 330° 12 - 30.11 - 10 CLR None
2019-11-21 05:35 36 28 29 74 330° 9 - 30.11 - 10 CLR None
2019-11-21 05:15 36 28 26 74 330° 9 16 30.10 - 10 CLR None
2019-11-21 04:55 36 28 28 74 320° 12 - 30.10 - 10 CLR None
2019-11-21 04:35 36 28 27 74 320° 13 - 30.10 - 10 CLR None
2019-11-21 04:15 36 30 29 80 320° 9 - 30.09 - 10 CLR None
2019-11-21 03:55 36 30 28 80 320° 10 - 30.08 - 10 CLR None
2019-11-21 03:35 36 30 29 80 340° 9 - 30.08 - 10 CLR None
2019-11-21 03:15 36 30 28 80 340° 12 - 30.07 - 10 CLR None
2019-11-21 02:55 36 30 27 80 340° 7 13 30.07 - 10 CLR None
2019-11-21 02:35 36 30 28 80 350° 10 - 30.07 - 10 CLR None
2019-11-21 02:15 36 30 26 80 330° 9 15 30.07 - 10 CLR None
2019-11-21 01:55 36 30 29 80 340° 8 - 30.06 - 10 CLR None
2019-11-21 01:35 36 30 31 80 340° 6 - 30.06 - 10 CLR None
2019-11-21 01:15 37 30 31 74 330° 9 - 30.05 - 10 CLR None
2019-11-21 00:55 37 30 31 74 320° 9 - 30.05 - 10 CLR None
2019-11-21 00:35 37 30 29 74 320° 7 15 30.04 - 10 SCT029 None
2019-11-21 00:15 37 30 31 74 320° 9 - 30.04 - 10 BKN030 None
2019-11-20 23:55 37 30 28 74 330° 10 16 30.04 - 10 SCT027 BKN031 None
2019-11-20 23:35 37 30 29 74 330° 7 15 30.04 - 10 OVC030 None
2019-11-20 23:15 37 30 31 74 340° 8 - 30.04 - 10 BKN032 None
2019-11-20 22:55 37 30 31 74 330° 8 - 30.03 - 10 FEW033 None
2019-11-20 22:35 37 30 31 74 330° 8 - 30.03 - 10 CLR None
2019-11-20 22:15 37 30 31 74 350° 9 - 30.02 - 10 SCT029 None

Support USWX by starting your Amazon purchase here.